Alango, Minnesota
Current Conditions -  °F | °C
As of 8:35 PM on Wednesday 26 Nov 2014 (Local Time) from KCQM Reporting Station
Clear Clear  
Wind Chill: -4°   Ceiling: Unl
Heat Index: -4°   Visibility: 10mi
Dew Point: -8°   Wind: 3mph
Humidity: 85%   Direction: 310°NW
Pressure: 30.36"   Gusts: NA
Location:  47.7453°N, 92.7634°W
Report Text: KCQM 270235Z AUTO 31003KT 10SM CLR M20/M22 A3036 RMK AO2
Loading
Personal Weather Stations






























Interactive Weather Map New forecast layout! Learn more

10-Day Weather Forecast

Advertisements
Track Severe Weather on mobile